Time;durP1;ratioP1;P1;durP2;ratioP2;P2;SDS_P1;SDS_P2;PMS_P1;PMS_P2;Temp;Humidity;BMP_temperature;BMP_pressure;BME280_temperature;BME280_humidity;BME280_pressure;Samples;Min_cycle;Max_cycle;Signal;HPM_P1;HPM_P2
2021/11/26 00:03:56;;;;;;;48.92;21.15;;;3.90;99.90;;;;;;12263198;28;20562;-39
2021/11/26 00:09:58;;;;;;;51.75;20.38;;;3.90;99.90;;;;;;12265309;28;20063;-39
2021/11/26 00:16:06;;;;;;;37.45;17.33;;;4.00;99.90;;;;;;12265263;28;20987;-38
2021/11/26 00:22:08;;;;;;;48.05;18.48;;;4.00;99.90;;;;;;12265727;28;20055;-39
2021/11/26 00:28:10;;;;;;;45.42;18.92;;;4.00;99.90;;;;;;12267194;28;20110;-39
2021/11/26 00:34:12;;;;;;;49.35;18.67;;;4.00;99.90;;;;;;12263322;28;20559;-39
2021/11/26 00:40:14;;;;;;;44.42;18.90;;;3.90;99.90;;;;;;12269858;28;20075;-38
2021/11/26 00:46:18;;;;;;;48.58;19.90;;;3.90;99.90;;;;;;12267593;28;20086;-39
2021/11/26 00:52:20;;;;;;;45.97;19.65;;;3.90;99.90;;;;;;12264402;28;20074;-39
2021/11/26 00:58:22;;;;;;;54.75;19.95;;;3.90;99.90;;;;;;12275256;28;20059;-38
2021/11/26 01:04:24;;;;;;;65.57;20.85;;;3.90;99.90;;;;;;12269798;28;20090;-38
2021/11/26 01:10:26;;;;;;;41.55;18.25;;;3.90;99.90;;;;;;12270075;28;20055;-38
2021/11/26 01:16:28;;;;;;;46.17;18.23;;;3.90;99.90;;;;;;12269711;28;20052;-39
2021/11/26 01:22:30;;;;;;;41.50;17.13;;;3.90;99.90;;;;;;12271974;28;20047;-38
2021/11/26 01:28:33;;;;;;;41.20;16.77;;;3.90;99.90;;;;;;12274909;28;20101;-39
2021/11/26 01:34:35;;;;;;;42.95;16.13;;;3.90;99.90;;;;;;12270631;28;20078;-39
2021/11/26 01:40:40;;;;;;;43.22;15.50;;;3.90;99.90;;;;;;12270914;28;20496;-39
2021/11/26 01:46:43;;;;;;;44.17;17.90;;;3.90;99.90;;;;;;12272805;28;20155;-39
2021/11/26 01:52:46;;;;;;;41.33;17.30;;;3.90;99.90;;;;;;12272543;28;20058;-39
2021/11/26 01:58:48;;;;;;;54.85;20.38;;;3.90;99.90;;;;;;12276169;28;20094;-39
2021/11/26 02:04:50;;;;;;;50.65;21.00;;;3.90;99.90;;;;;;12264659;28;21527;-39
2021/11/26 02:10:53;;;;;;;54.13;19.58;;;4.00;99.90;;;;;;12265198;28;20136;-39
2021/11/26 02:16:58;;;;;;;41.50;18.27;;;3.90;99.90;;;;;;12268502;28;20074;-38
2021/11/26 02:23:00;;;;;;;53.03;19.77;;;3.80;99.90;;;;;;12269330;28;20063;-39
2021/11/26 02:36:28;;;;;;;51.03;18.27;;;3.80;99.90;;;;;;12269780;28;20133;-39
2021/11/26 02:42:37;;;;;;;62.25;22.33;;;3.80;99.90;;;;;;12270966;28;20071;-38
2021/11/26 02:48:40;;;;;;;62.80;22.15;;;3.80;99.90;;;;;;12272090;28;20094;-39
2021/11/26 02:54:43;;;;;;;61.25;22.58;;;3.80;99.90;;;;;;12271277;28;20051;-38
2021/11/26 03:00:51;;;;;;;62.45;23.85;;;3.80;99.90;;;;;;12274362;28;20047;-38
2021/11/26 03:07:05;;;;;;;62.75;21.88;;;3.80;99.90;;;;;;12266460;28;20090;-39
2021/11/26 03:13:09;;;;;;;64.50;24.15;;;3.80;99.90;;;;;;12264433;28;20047;-39
2021/11/26 03:19:11;;;;;;;78.47;27.60;;;3.90;99.90;;;;;;12266528;28;20052;-39
2021/11/26 03:25:14;;;;;;;80.82;26.60;;;3.90;99.90;;;;;;12267569;28;20159;-38
2021/11/26 03:31:16;;;;;;;90.88;30.35;;;3.90;99.90;;;;;;12264078;28;20416;-38
2021/11/26 03:37:18;;;;;;;92.05;30.02;;;3.90;99.90;;;;;;12262970;28;20078;-39
2021/11/26 03:43:23;;;;;;;99.90;31.60;;;3.90;99.90;;;;;;12267915;28;20055;-38
2021/11/26 03:49:25;;;;;;;111.75;35.13;;;3.90;99.90;;;;;;12266931;28;20051;-38
2021/11/26 03:55:27;;;;;;;110.95;34.05;;;4.00;99.90;;;;;;12265788;28;20083;-39
2021/11/26 04:01:30;;;;;;;104.53;33.05;;;4.00;99.90;;;;;;12268619;28;20108;-38
2021/11/26 04:07:33;;;;;;;121.40;34.13;;;4.00;99.90;;;;;;12265293;28;20101;-38
2021/11/26 04:13:35;;;;;;;105.13;32.28;;;4.00;99.90;;;;;;12269763;28;20113;-39
2021/11/26 04:19:38;;;;;;;113.88;33.03;;;4.00;99.90;;;;;;12266604;28;20149;-39
2021/11/26 04:25:39;;;;;;;97.97;30.90;;;4.00;99.90;;;;;;12268965;28;20154;-39
2021/11/26 04:31:41;;;;;;;103.22;33.15;;;4.00;99.90;;;;;;12271949;28;20087;-39
2021/11/26 04:37:48;;;;;;;99.68;31.10;;;4.00;99.90;;;;;;12269211;28;20131;-38
2021/11/26 04:43:50;;;;;;;93.18;29.55;;;4.00;99.90;;;;;;12273838;28;20055;-39
2021/11/26 04:49:52;;;;;;;82.00;29.67;;;4.00;99.90;;;;;;12274274;28;20121;-38
2021/11/26 04:55:54;;;;;;;94.10;28.90;;;3.90;99.90;;;;;;12274210;28;20052;-38
2021/11/26 05:01:56;;;;;;;80.57;29.38;;;3.90;99.90;;;;;;12278183;28;20419;-39
2021/11/26 05:07:59;;;;;;;71.47;27.95;;;3.90;99.90;;;;;;12275619;28;20086;-38
2021/11/26 05:14:05;;;;;;;73.50;26.88;;;4.00;99.90;;;;;;12273526;28;20063;-40
2021/11/26 05:20:07;;;;;;;69.18;26.10;;;4.00;99.90;;;;;;12273684;28;20055;-37
2021/11/26 05:26:13;;;;;;;69.60;26.95;;;4.00;99.90;;;;;;12270638;28;20117;-39
2021/11/26 05:32:15;;;;;;;68.28;25.92;;;3.90;99.90;;;;;;12275733;28;20047;-39
2021/11/26 05:38:17;;;;;;;66.97;25.52;;;3.90;99.90;;;;;;12268157;28;20193;-38
2021/11/26 05:44:19;;;;;;;68.30;24.55;;;3.90;99.90;;;;;;12270887;28;20742;-38
2021/11/26 05:50:22;;;;;;;69.85;28.15;;;3.90;99.90;;;;;;12271160;28;20055;-39
2021/11/26 05:56:24;;;;;;;70.15;24.67;;;3.90;99.90;;;;;;12273269;28;20099;-39
2021/11/26 06:02:26;;;;;;;65.07;23.30;;;3.90;99.90;;;;;;12268865;28;20047;-39
2021/11/26 06:08:28;;;;;;;67.40;24.70;;;3.90;99.90;;;;;;12267504;28;20055;-40
2021/11/26 06:14:30;;;;;;;67.25;23.77;;;3.90;99.90;;;;;;12266971;28;21000;-38
2021/11/26 06:20:32;;;;;;;73.00;24.80;;;3.90;99.90;;;;;;12259126;28;20261;-38
2021/11/26 06:26:35;;;;;;;70.20;24.23;;;3.90;99.90;;;;;;12263227;28;20111;-39
2021/11/26 06:32:42;;;;;;;60.10;23.10;;;3.90;99.90;;;;;;12261027;28;20094;-39
2021/11/26 06:38:44;;;;;;;68.10;23.50;;;3.90;99.90;;;;;;12267727;28;21410;-39
2021/11/26 06:44:45;;;;;;;63.78;22.65;;;3.90;99.90;;;;;;12261045;28;20103;-38
2021/11/26 06:50:47;;;;;;;66.25;23.13;;;3.90;99.90;;;;;;12264425;28;20131;-38
2021/11/26 06:56:49;;;;;;;59.95;22.95;;;3.90;99.90;;;;;;12266043;28;20850;-39
2021/11/26 07:02:51;;;;;;;67.07;23.88;;;3.90;99.90;;;;;;12241562;28;20097;-39
2021/11/26 07:08:53;;;;;;;52.05;20.35;;;3.90;99.90;;;;;;12233195;28;20198;-38
2021/11/26 07:14:55;;;;;;;60.20;23.73;;;3.80;99.90;;;;;;12215415;29;20055;-38
2021/11/26 07:21:03;;;;;;;55.20;21.80;;;3.80;99.90;;;;;;12218148;29;20059;-39
2021/11/26 07:27:06;;;;;;;54.55;22.23;;;3.80;99.90;;;;;;12214977;29;20060;-40
2021/11/26 07:33:08;;;;;;;58.05;21.63;;;3.80;99.90;;;;;;12211779;29;20127;-38
2021/11/26 07:39:10;;;;;;;59.33;21.73;;;3.80;99.90;;;;;;12213934;29;20088;-39
2021/11/26 07:45:13;;;;;;;55.65;21.23;;;3.80;99.90;;;;;;12216150;29;20051;-39
2021/11/26 07:51:15;;;;;;;56.38;20.67;;;3.80;99.90;;;;;;12213615;29;20197;-39
2021/11/26 07:57:17;;;;;;;46.55;19.15;;;3.80;99.90;;;;;;12216948;29;20051;-39
2021/11/26 08:03:21;;;;;;;44.03;19.05;;;3.80;99.90;;;;;;12218999;29;20056;-38
2021/11/26 08:09:38;;;;;;;46.15;19.60;;;3.80;99.90;;;;;;12250313;28;20059;-39
2021/11/26 08:15:40;;;;;;;48.03;19.77;;;3.80;99.90;;;;;;12260262;28;20055;-39
2021/11/26 08:21:43;;;;;;;44.35;17.88;;;3.80;99.90;;;;;;12260006;28;20052;-39
2021/11/26 08:27:45;;;;;;;39.60;17.45;;;3.80;99.90;;;;;;12242481;28;20075;-38
2021/11/26 08:33:48;;;;;;;34.95;16.42;;;3.90;99.90;;;;;;12257973;28;20062;-38
2021/11/26 08:39:50;;;;;;;43.08;17.75;;;3.90;99.90;;;;;;12255712;28;20102;-38
2021/11/26 08:45:52;;;;;;;40.28;17.35;;;3.90;99.90;;;;;;12258199;28;20101;-39
2021/11/26 08:51:56;;;;;;;41.05;18.25;;;3.90;99.90;;;;;;12261915;28;20566;-39
2021/11/26 08:58:00;;;;;;;42.88;18.52;;;3.90;99.90;;;;;;12261768;28;20568;-39
2021/11/26 09:04:03;;;;;;;44.97;18.65;;;3.90;99.90;;;;;;12256995;28;20052;-39
2021/11/26 09:10:11;;;;;;;44.45;19.08;;;3.90;99.90;;;;;;12258178;28;20055;-39
2021/11/26 09:16:13;;;;;;;42.85;20.02;;;4.00;99.90;;;;;;12266041;28;20170;-39
2021/11/26 09:22:16;;;;;;;40.65;18.42;;;4.00;99.90;;;;;;12268142;28;20043;-38
2021/11/26 09:28:18;;;;;;;33.35;14.50;;;4.00;99.90;;;;;;12274266;28;20467;-37
2021/11/26 09:34:21;;;;;;;26.10;13.57;;;4.00;99.90;;;;;;12275746;28;20043;-39
2021/11/26 09:40:22;;;;;;;23.90;11.93;;;3.90;99.90;;;;;;12270369;28;20051;-39
2021/11/26 09:46:28;;;;;;;21.77;12.02;;;3.90;99.90;;;;;;12271410;28;20496;-39
2021/11/26 09:52:31;;;;;;;22.73;11.77;;;3.80;99.90;;;;;;12254809;28;20051;-39
2021/11/26 09:58:35;;;;;;;21.77;11.55;;;3.70;99.90;;;;;;12273418;28;20047;-39
2021/11/26 10:04:37;;;;;;;12.77;8.15;;;3.70;99.90;;;;;;12264438;28;20051;-39
2021/11/26 10:10:41;;;;;;;14.23;8.73;;;3.60;99.90;;;;;;12272195;28;20487;-39
2021/11/26 10:16:53;;;;;;;13.43;7.77;;;3.60;99.90;;;;;;12268177;28;20158;-38
2021/11/26 10:22:55;;;;;;;13.05;6.75;;;3.70;99.90;;;;;;12264761;28;20655;-39
2021/11/26 10:29:02;;;;;;;14.80;8.60;;;3.80;99.90;;;;;;12269192;28;20059;-39
2021/11/26 10:35:05;;;;;;;17.52;9.80;;;3.80;99.90;;;;;;12266818;28;20058;-38
2021/11/26 10:41:14;;;;;;;17.75;9.88;;;3.80;99.90;;;;;;12264288;28;20134;-39
2021/11/26 10:59:58;;;;;;;18.98;11.15;;;3.90;99.90;;;;;;12269111;28;20488;-39
2021/11/26 11:06:00;;;;;;;17.83;10.65;;;4.00;99.90;;;;;;12262148;28;20150;-40
2021/11/26 11:12:05;;;;;;;20.63;11.60;;;4.10;99.90;;;;;;12265739;28;20047;-39
2021/11/26 11:18:09;;;;;;;17.70;11.15;;;4.20;99.90;;;;;;12265022;28;20093;-38
2021/11/26 11:24:13;;;;;;;14.93;9.27;;;4.20;99.90;;;;;;12270057;28;20428;-39
2021/11/26 11:30:15;;;;;;;14.40;8.32;;;4.10;99.90;;;;;;12259285;28;20066;-38
2021/11/26 11:36:18;;;;;;;15.55;8.45;;;4.10;99.90;;;;;;12270180;28;20047;-38
2021/11/26 11:42:42;;;;;;;15.27;8.93;;;4.00;99.90;;;;;;12263653;28;20052;-39
2021/11/26 11:48:49;;;;;;;15.37;9.97;;;3.90;99.90;;;;;;12269417;28;20051;-38
2021/11/26 11:54:51;;;;;;;16.80;10.73;;;3.90;99.90;;;;;;12260328;28;20511;-38
2021/11/26 12:00:55;;;;;;;16.83;12.05;;;4.00;99.90;;;;;;12269317;28;20055;-39
2021/11/26 12:06:57;;;;;;;21.58;12.15;;;4.10;99.90;;;;;;12269577;28;20067;-39
2021/11/26 12:13:00;;;;;;;19.13;11.63;;;4.10;99.90;;;;;;12269565;28;20667;-38
2021/11/26 12:19:02;;;;;;;19.95;11.70;;;4.10;99.90;;;;;;12269463;28;20138;-39
2021/11/26 12:25:16;;;;;;;16.02;10.50;;;4.10;99.90;;;;;;12267013;28;20055;-39
2021/11/26 12:31:35;;;;;;;13.07;8.13;;;4.20;99.90;;;;;;12269241;28;20060;-39
2021/11/26 12:37:37;;;;;;;17.27;7.55;;;4.20;99.90;;;;;;12269119;28;20063;-38
2021/11/26 12:43:45;;;;;;;13.02;7.10;;;4.20;99.90;;;;;;12268949;28;20187;-39
2021/11/26 12:56:00;;;;;;;12.70;5.88;;;4.20;99.90;;;;;;12274998;28;20055;-38
2021/11/26 13:02:05;;;;;;;9.07;4.63;;;4.20;99.90;;;;;;12273678;28;20196;-39
2021/11/26 13:08:16;;;;;;;10.25;4.80;;;4.20;99.90;;;;;;12233340;28;20059;-39
2021/11/26 13:14:19;;;;;;;9.95;4.63;;;4.10;99.90;;;;;;12219786;29;20050;-38
2021/11/26 13:20:29;;;;;;;9.85;4.97;;;4.10;99.90;;;;;;12209123;29;20058;-38
2021/11/26 13:26:32;;;;;;;9.07;4.38;;;4.10;99.90;;;;;;12225873;29;20584;-39
2021/11/26 13:32:35;;;;;;;12.05;4.35;;;4.00;99.90;;;;;;12221369;29;20052;-38
2021/11/26 13:38:44;;;;;;;9.35;4.20;;;4.00;99.90;;;;;;12205985;29;20051;-39
2021/11/26 13:44:49;;;;;;;10.55;4.75;;;4.00;99.90;;;;;;12223131;29;20572;-39
2021/11/26 13:51:18;;;;;;;8.27;4.15;;;4.10;99.90;;;;;;12229386;29;20710;-38
2021/11/26 13:57:30;;;;;;;10.43;4.55;;;4.00;99.90;;;;;;12225540;29;20071;-39
2021/11/26 14:03:44;;;;;;;11.80;4.20;;;3.90;99.90;;;;;;12224825;29;20059;-38
2021/11/26 14:10:09;;;;;;;7.70;4.65;;;3.90;99.90;;;;;;12262192;28;20051;-38
2021/11/26 14:16:15;;;;;;;9.07;4.93;;;3.80;99.90;;;;;;12281421;28;20106;-37
2021/11/26 14:22:22;;;;;;;15.43;5.68;;;3.80;99.90;;;;;;12270652;28;20056;-38
2021/11/26 14:28:25;;;;;;;13.55;5.20;;;3.70;99.90;;;;;;12269339;28;20055;-39
2021/11/26 14:34:33;;;;;;;12.65;6.03;;;3.70;99.90;;;;;;12269265;28;20059;-39
2021/11/26 14:40:40;;;;;;;9.60;5.63;;;3.70;99.90;;;;;;12269116;28;20051;-39
2021/11/26 14:46:59;;;;;;;15.75;6.32;;;3.70;99.90;;;;;;12286258;28;20530;-37
2021/11/26 14:53:19;;;;;;;10.65;5.20;;;3.70;99.90;;;;;;12277225;28;20043;-38
2021/11/26 14:59:33;;;;;;;12.85;4.97;;;3.70;99.90;;;;;;12279704;28;20043;-39
2021/11/26 15:05:39;;;;;;;10.63;4.65;;;3.60;99.90;;;;;;12267388;28;20141;-37
2021/11/26 15:11:54;;;;;;;10.60;4.20;;;3.60;99.90;;;;;;12274194;28;20052;-38
2021/11/26 15:18:08;;;;;;;8.30;4.28;;;3.60;99.90;;;;;;12279757;28;20091;-38
2021/11/26 15:24:25;;;;;;;10.98;3.65;;;3.60;99.90;;;;;;12268366;28;20146;-38
2021/11/26 15:30:36;;;;;;;5.80;2.95;;;3.60;99.90;;;;;;12274342;28;20059;-38
2021/11/26 15:36:48;;;;;;;7.78;2.70;;;3.60;99.90;;;;;;12279110;28;20039;-37
2021/11/26 15:43:03;;;;;;;10.75;2.72;;;3.60;99.90;;;;;;12280604;28;20047;-37
2021/11/26 15:49:15;;;;;;;8.15;2.45;;;3.60;99.90;;;;;;12273566;28;20047;-38
2021/11/26 15:55:17;;;;;;;4.50;2.40;;;3.60;99.90;;;;;;12273260;28;20047;-39
2021/11/26 16:01:20;;;;;;;5.22;2.13;;;3.70;99.90;;;;;;12267597;28;20492;-39
2021/11/26 16:07:26;;;;;;;7.53;2.20;;;3.70;99.90;;;;;;12265106;28;20090;-39
2021/11/26 16:13:32;;;;;;;5.60;2.03;;;3.70;99.90;;;;;;12269128;28;21015;-39
2021/11/26 16:19:39;;;;;;;7.10;2.33;;;3.70;99.90;;;;;;12270219;28;20130;-39
2021/11/26 16:25:42;;;;;;;7.80;2.20;;;3.70;99.90;;;;;;12269642;28;20694;-39
2021/11/26 16:37:55;;;;;;;6.90;2.72;;;3.70;99.90;;;;;;12272264;28;20071;-40
2021/11/26 16:43:58;;;;;;;5.47;2.42;;;3.80;99.90;;;;;;12273083;28;20051;-38
2021/11/26 16:50:10;;;;;;;7.25;2.60;;;3.70;99.90;;;;;;12272305;28;20051;-38
2021/11/26 16:56:13;;;;;;;5.32;2.45;;;3.70;99.90;;;;;;12277641;28;20051;-39
2021/11/26 17:02:16;;;;;;;6.38;3.20;;;3.70;99.90;;;;;;12266515;28;20066;-38
2021/11/26 17:08:20;;;;;;;7.50;2.50;;;3.80;99.90;;;;;;12269650;28;20632;-39
2021/11/26 17:14:23;;;;;;;6.10;2.70;;;3.70;99.90;;;;;;12269436;28;20047;-39
2021/11/26 17:20:26;;;;;;;6.13;2.50;;;3.70;99.90;;;;;;12271561;28;20074;-38
2021/11/26 17:26:27;;;;;;;9.60;2.88;;;3.70;99.90;;;;;;12271715;28;20138;-39
2021/11/26 17:32:29;;;;;;;6.53;2.38;;;3.70;99.90;;;;;;12271803;28;20344;-39
2021/11/26 17:38:31;;;;;;;6.57;2.90;;;3.60;99.90;;;;;;12272755;28;20055;-38
2021/11/26 17:44:35;;;;;;;8.10;3.25;;;3.60;99.90;;;;;;12272311;28;20055;-37
2021/11/26 17:50:39;;;;;;;7.47;3.90;;;3.50;99.90;;;;;;12272540;28;20111;-39
2021/11/26 17:56:44;;;;;;;10.98;4.28;;;3.40;99.90;;;;;;12271066;28;21001;-39
2021/11/26 18:02:46;;;;;;;9.68;4.25;;;3.40;99.90;;;;;;12260721;28;20083;-38
2021/11/26 18:08:51;;;;;;;8.23;4.55;;;3.30;99.90;;;;;;12268088;28;20628;-40
2021/11/26 18:14:54;;;;;;;10.80;4.82;;;3.30;99.90;;;;;;12265390;28;20162;-39
2021/11/26 18:20:56;;;;;;;14.85;6.35;;;3.20;99.90;;;;;;12266489;28;20463;-39
2021/11/26 18:26:59;;;;;;;9.95;5.63;;;3.10;99.90;;;;;;12264106;28;20047;-38
2021/11/26 18:33:01;;;;;;;9.57;4.80;;;3.10;99.90;;;;;;12265569;28;20055;-38
2021/11/26 18:39:06;;;;;;;10.18;5.40;;;3.10;99.90;;;;;;12265267;28;20046;-37
2021/11/26 18:45:09;;;;;;;12.25;6.20;;;3.10;99.90;;;;;;12262858;28;20059;-39
2021/11/26 18:51:12;;;;;;;11.45;5.68;;;3.00;99.90;;;;;;12264773;28;20070;-39
2021/11/26 18:57:14;;;;;;;15.85;5.68;;;2.90;99.90;;;;;;12260892;28;20063;-38
2021/11/26 19:03:16;;;;;;;13.50;5.75;;;2.80;99.90;;;;;;12262690;28;20047;-38
2021/11/26 19:09:18;;;;;;;11.50;6.10;;;2.70;99.90;;;;;;12263569;28;20138;-37
2021/11/26 19:15:22;;;;;;;14.07;6.20;;;2.70;99.90;;;;;;12261894;28;20134;-39
2021/11/26 19:21:28;;;;;;;11.47;6.07;;;2.60;99.90;;;;;;12262443;28;20086;-38
2021/11/26 19:27:31;;;;;;;13.40;6.57;;;2.60;99.90;;;;;;12261784;28;20138;-38
2021/11/26 19:33:33;;;;;;;10.75;5.93;;;2.60;99.90;;;;;;12262076;28;20074;-39
2021/11/26 19:39:37;;;;;;;12.02;6.68;;;2.60;99.90;;;;;;12263035;28;20390;-41
2021/11/26 19:45:41;;;;;;;10.02;5.70;;;2.60;99.90;;;;;;12264085;28;20090;-38
2021/11/26 19:51:42;;;;;;;10.93;6.15;;;2.50;99.90;;;;;;12265262;28;20075;-38
2021/11/26 19:57:44;;;;;;;12.63;6.20;;;2.50;99.90;;;;;;12260856;28;20452;-39
2021/11/26 20:03:46;;;;;;;12.52;5.72;;;2.50;99.90;;;;;;12257183;28;20047;-37
2021/11/26 20:09:48;;;;;;;10.05;5.72;;;2.50;99.90;;;;;;12265348;28;20419;-39
2021/11/26 20:15:51;;;;;;;12.93;7.13;;;2.50;99.90;;;;;;12257704;28;20142;-39
2021/11/26 20:21:54;;;;;;;11.13;5.80;;;2.50;99.90;;;;;;12259113;28;20571;-39
2021/11/26 20:27:56;;;;;;;10.75;6.13;;;2.40;99.90;;;;;;12261220;28;20051;-37
2021/11/26 20:33:58;;;;;;;14.85;7.40;;;2.40;99.90;;;;;;12260136;28;20093;-39
2021/11/26 20:40:00;;;;;;;14.73;7.00;;;2.50;99.90;;;;;;12265349;28;20056;-39
2021/11/26 20:46:07;;;;;;;13.05;6.55;;;2.50;99.90;;;;;;12257229;28;20059;-38
2021/11/26 20:52:09;;;;;;;10.98;7.55;;;2.60;99.90;;;;;;12256908;28;20098;-39
2021/11/26 20:58:11;;;;;;;10.45;6.60;;;2.70;99.90;;;;;;12259072;28;20055;-38
2021/11/26 21:04:13;;;;;;;10.23;6.32;;;2.80;99.90;;;;;;12257379;28;20558;-38
2021/11/26 21:10:16;;;;;;;13.77;6.80;;;2.80;99.90;;;;;;12264098;28;20083;-37
2021/11/26 21:16:18;;;;;;;10.38;6.03;;;2.80;99.90;;;;;;12271778;28;20086;-38
2021/11/26 21:22:20;;;;;;;8.98;6.18;;;2.80;99.90;;;;;;12268311;28;20067;-39
2021/11/26 21:28:22;;;;;;;10.63;6.90;;;2.80;99.90;;;;;;12268878;28;20074;-39
2021/11/26 21:34:24;;;;;;;12.05;6.38;;;2.80;99.90;;;;;;12267469;28;20090;-38
2021/11/26 21:40:26;;;;;;;13.10;7.22;;;2.80;99.90;;;;;;12267464;28;20043;-37
2021/11/26 21:46:28;;;;;;;10.55;6.93;;;2.80;99.90;;;;;;12267057;28;20832;-38
2021/11/26 21:52:30;;;;;;;11.10;7.25;;;2.80;99.90;;;;;;12266229;28;20417;-38
2021/11/26 21:58:33;;;;;;;11.00;7.43;;;2.80;99.90;;;;;;12271471;28;20055;-38
2021/11/26 22:04:35;;;;;;;10.30;6.63;;;2.80;99.90;;;;;;12266388;28;20673;-39
2021/11/26 22:10:38;;;;;;;10.43;7.10;;;2.80;99.90;;;;;;12263721;28;20054;-39
2021/11/26 22:16:40;;;;;;;11.02;7.13;;;2.80;99.90;;;;;;12267924;28;20082;-39
2021/11/26 22:22:42;;;;;;;9.85;6.68;;;2.70;99.90;;;;;;12266298;28;20082;-37
2021/11/26 22:28:44;;;;;;;11.73;6.93;;;2.60;99.90;;;;;;12263556;28;20408;-38
2021/11/26 22:34:46;;;;;;;11.00;7.05;;;2.60;99.90;;;;;;12262333;28;20134;-37
2021/11/26 22:40:48;;;;;;;11.85;7.80;;;2.50;99.90;;;;;;12259881;28;20062;-39
2021/11/26 22:46:50;;;;;;;11.98;8.05;;;2.40;99.90;;;;;;12263665;28;20499;-39
2021/11/26 22:52:54;;;;;;;14.10;9.10;;;2.40;99.90;;;;;;12259805;28;20047;-37
2021/11/26 22:58:57;;;;;;;14.05;9.15;;;2.30;99.90;;;;;;12262807;28;20052;-38
2021/11/26 23:04:59;;;;;;;13.32;8.10;;;2.40;99.90;;;;;;12260581;28;20047;-38
2021/11/26 23:11:03;;;;;;;15.48;9.80;;;2.30;99.90;;;;;;12261075;28;20090;-39
2021/11/26 23:17:06;;;;;;;16.75;10.48;;;2.30;99.90;;;;;;12260129;28;20141;-38
2021/11/26 23:23:16;;;;;;;17.00;10.90;;;2.30;99.90;;;;;;12262011;28;20139;-39
2021/11/26 23:29:19;;;;;;;20.15;12.00;;;2.30;99.90;;;;;;12261173;28;20047;-39
2021/11/26 23:35:22;;;;;;;20.17;13.00;;;2.30;99.90;;;;;;12262397;28;20412;-38
2021/11/26 23:41:25;;;;;;;19.13;11.93;;;2.30;99.90;;;;;;12260642;28;20547;-39
2021/11/26 23:47:27;;;;;;;20.60;12.95;;;2.30;99.90;;;;;;12260838;28;20054;-39
2021/11/26 23:53:30;;;;;;;18.75;12.18;;;2.20;99.90;;;;;;12258939;28;20047;-38
2021/11/26 23:59:32;;;;;;;20.00;12.70;;;2.30;99.90;;;;;;12262035;28;20052;-39
